Time;durP1;ratioP1;P1;durP2;ratioP2;P2;SDS_P1;SDS_P2;PMS_P1;PMS_P2;Temp;Humidity;BMP_temperature;BMP_pressure;BME280_temperature;BME280_humidity;BME280_pressure;Samples;Min_cycle;Max_cycle;Signal;HPM_P1;HPM_P2
2023/07/05 00:01:32;;;;;;;10.80;5.90;;;;;;;14.54;48.82;100848.12;104906;1293;68505;-90
2023/07/05 00:05:20;;;;;;;7.80;6.10;;;;;;;14.50;48.91;100856.58;105454;1286;72440;-90
2023/07/05 00:09:07;;;;;;;7.80;6.70;;;;;;;14.44;48.93;100858.30;105566;1287;60999;-89
2023/07/05 00:12:53;;;;;;;10.60;6.50;;;;;;;14.36;49.11;100857.82;105523;1288;61319;-90
2023/07/05 00:16:40;;;;;;;9.50;6.60;;;;;;;14.37;49.29;100853.61;105565;1287;73252;-90
2023/07/05 00:20:30;;;;;;;9.50;6.20;;;;;;;14.35;49.34;100852.64;105588;1290;68140;-90
2023/07/05 00:24:19;;;;;;;15.20;6.20;;;;;;;14.31;49.52;100841.83;105604;1288;71437;-91
2023/07/05 00:28:06;;;;;;;10.20;6.40;;;;;;;14.25;49.52;100841.98;104939;1295;61315;-90
2023/07/05 00:31:53;;;;;;;7.30;6.40;;;;;;;14.24;49.64;100838.20;104862;1293;61176;-91
2023/07/05 00:38:15;;;;;;;11.70;6.50;;;;;;;14.23;49.74;100823.50;105595;1286;66879;-88
2023/07/05 00:42:03;;;;;;;9.30;6.70;;;;;;;14.22;49.87;100824.03;105444;1290;74012;-90
2023/07/05 00:46:05;;;;;;;9.40;5.70;;;;;;;14.17;49.84;100831.98;104918;1292;59455;-89
2023/07/05 00:49:51;;;;;;;15.40;7.20;;;;;;;14.05;49.75;100832.30;104120;1305;60037;-89
2023/07/05 00:53:38;;;;;;;7.40;5.80;;;;;;;13.98;49.93;100834.77;104149;1305;74454;-89
2023/07/05 00:57:28;;;;;;;10.00;5.40;;;;;;;13.94;49.98;100832.80;103994;1306;68346;-90
2023/07/05 01:01:14;;;;;;;9.80;7.10;;;;;;;13.86;50.21;100823.46;104071;1305;71239;-90
2023/07/05 01:05:05;;;;;;;8.30;6.60;;;;;;;13.81;50.25;100822.04;104055;1305;60874;-90
2023/07/05 01:08:51;;;;;;;9.60;5.60;;;;;;;13.78;50.40;100823.16;102526;1320;59215;-90
2023/07/05 01:12:44;;;;;;;9.10;6.10;;;;;;;13.73;50.44;100818.77;102490;1320;73991;-90
2023/07/05 01:16:34;;;;;;;6.30;4.70;;;;;;;13.64;50.63;100814.16;102223;1325;68058;-90
2023/07/05 01:20:39;;;;;;;6.10;5.50;;;;;;;13.61;50.53;100816.14;101906;1330;74142;-90
2023/07/05 01:24:06;;;;;;;;;;;;;;;13.56;50.64;100812.46;102045;1326;61509;-91
2023/07/05 01:27:28;;;;;;;7.60;5.10;;;;;;;13.53;50.66;100812.35;105615;1283;61171;-88
2023/07/05 01:31:24;;;;;;;8.30;6.20;;;;;;;13.50;50.62;100812.27;105433;1289;74368;-90
2023/07/05 01:35:17;;;;;;;9.30;5.70;;;;;;;13.45;50.74;100805.50;104616;1296;70097;-90
2023/07/05 01:39:09;;;;;;;8.70;5.80;;;;;;;13.33;50.94;100810.46;104664;1297;71830;-90
2023/07/05 01:45:33;;;;;;;8.70;6.00;;;;;;;13.28;51.21;100815.42;105671;1285;60040;-88
2023/07/05 01:49:29;;;;;;;8.10;4.90;;;;;;;13.15;51.23;100813.30;105558;1288;73269;-90
2023/07/05 01:53:25;;;;;;;6.20;4.90;;;;;;;13.00;51.27;100825.41;104244;1301;66240;-90
2023/07/05 01:57:17;;;;;;;10.20;5.10;;;;;;;13.00;51.39;100823.00;104257;1303;71467;-90
2023/07/05 02:01:04;;;;;;;8.90;5.40;;;;;;;12.99;51.48;100817.98;104187;1302;59297;-90
2023/07/05 02:04:51;;;;;;;10.10;5.40;;;;;;;12.95;51.49;100820.87;104187;1302;62971;-89
2023/07/05 02:08:38;;;;;;;8.10;5.80;;;;;;;12.86;51.49;100823.83;104197;1302;72477;-89
2023/07/05 02:12:30;;;;;;;6.40;4.80;;;;;;;12.85;51.65;100826.96;104228;1302;67363;-90
2023/07/05 02:16:17;;;;;;;6.30;5.30;;;;;;;12.83;51.79;100823.02;103522;1311;72697;-90
2023/07/05 02:20:04;;;;;;;6.90;4.90;;;;;;;12.84;51.86;100821.45;103551;1311;61327;-89
2023/07/05 02:23:51;;;;;;;8.80;4.80;;;;;;;12.81;51.95;100819.95;102716;1317;62048;-90
2023/07/05 02:27:38;;;;;;;9.50;6.00;;;;;;;12.78;52.10;100821.23;102775;1317;75043;-90
2023/07/05 02:31:29;;;;;;;10.20;5.70;;;;;;;12.81;52.11;100821.34;104128;1306;69175;-89
2023/07/05 02:35:14;;;;;;;8.40;5.40;;;;;;;12.78;52.22;100823.14;103298;1311;71110;-90
2023/07/05 02:39:01;;;;;;;9.30;5.00;;;;;;;12.79;52.20;100822.25;102979;1317;61373;-90
2023/07/05 02:42:48;;;;;;;9.90;4.60;;;;;;;12.79;52.33;100822.27;102957;1314;59320;-90
2023/07/05 02:46:36;;;;;;;5.00;4.50;;;;;;;12.80;52.43;100820.31;102920;1317;73430;-90
2023/07/05 02:50:22;;;;;;;7.90;5.80;;;;;;;12.80;52.60;100815.30;102902;1317;67350;-90
2023/07/05 02:54:09;;;;;;;8.70;5.00;;;;;;;12.83;52.56;100814.20;102983;1314;71269;-89
2023/07/05 02:57:57;;;;;;;8.20;5.00;;;;;;;12.85;52.69;100809.84;103102;1317;61429;-90
2023/07/05 03:01:43;;;;;;;5.70;4.40;;;;;;;12.89;52.73;100803.52;103664;1308;61230;-90
2023/07/05 03:05:30;;;;;;;12.90;5.60;;;;;;;12.89;52.89;100803.70;103762;1309;73430;-90
2023/07/05 03:12:04;;;;;;;11.40;6.20;;;;;;;12.90;53.00;100799.86;105552;1288;72149;-88
2023/07/05 03:15:51;;;;;;;8.20;5.70;;;;;;;12.96;53.19;100798.52;105432;1287;61228;-90
2023/07/05 03:19:38;;;;;;;7.50;5.20;;;;;;;12.98;53.16;100794.85;105470;1290;61115;-90
2023/07/05 03:23:26;;;;;;;8.30;5.50;;;;;;;13.00;53.25;100795.84;105485;1287;76106;-90
2023/07/05 03:27:13;;;;;;;6.20;5.10;;;;;;;13.03;53.31;100796.23;104872;1292;68471;-90
2023/07/05 03:31:00;;;;;;;8.10;5.20;;;;;;;13.08;53.37;100796.48;104926;1293;72524;-90
2023/07/05 03:34:47;;;;;;;9.90;5.30;;;;;;;13.14;53.44;100793.91;104859;1295;61074;-90
2023/07/05 03:38:33;;;;;;;6.90;5.30;;;;;;;13.21;53.53;100785.29;104659;1297;59528;-89
2023/07/05 03:42:20;;;;;;;10.90;4.90;;;;;;;13.29;53.61;100779.58;104601;1297;74577;-89
2023/07/05 03:46:07;;;;;;;8.20;5.60;;;;;;;13.35;53.54;100773.54;104510;1297;68116;-90
2023/07/05 03:49:54;;;;;;;9.00;4.70;;;;;;;13.40;53.69;100765.96;104638;1297;72629;-90
2023/07/05 03:56:19;;;;;;;9.30;5.30;;;;;;;13.44;53.82;100761.54;105498;1287;61331;-85
2023/07/05 03:59:49;;;;;;;13.30;5.20;;;;;;;13.43;53.94;100756.55;105356;1288;72955;-88
2023/07/05 04:03:51;;;;;;;;;;;;;;;;;;;;;
2023/07/05 04:07:15;;;;;;;10.30;5.40;;;;;;;13.57;54.15;100754.05;105351;1288;71153;-88
2023/07/05 04:10:42;;;;;;;8.20;5.10;;;;;;;13.67;54.19;100756.23;105317;1292;59664;-88
2023/07/05 04:13:59;;;;;;;6.30;4.80;;;;;;;13.79;54.35;100758.70;105304;1287;61304;-88
2023/07/05 04:17:13;;;;;;;9.00;5.50;;;;;;;13.91;54.36;100760.77;105384;1287;74215;-87
2023/07/05 04:20:23;;;;;;;7.90;5.60;;;;;;;14.02;54.36;100757.36;105361;1287;67414;-88
2023/07/05 04:23:50;;;;;;;7.00;5.00;;;;;;;14.11;54.43;100757.42;105327;1293;71331;-88
2023/07/05 04:27:39;;;;;;;;;;;;;;;;;;;;;
2023/07/05 04:31:07;;;;;;;7.70;4.90;;;;;;;14.34;54.54;100758.66;103368;1288;2573651;-88
2023/07/05 04:34:25;;;;;;;5.90;4.90;;;;;;;14.50;54.63;100759.80;104732;1292;79393;-86
2023/07/05 04:38:12;;;;;;;7.10;4.60;;;;;;;14.65;54.62;100761.39;105208;1291;67459;-87
2023/07/05 04:41:46;;;;;;;9.00;4.90;;;;;;;14.78;54.77;100759.09;105258;1290;71222;-86
2023/07/05 04:45:13;;;;;;;9.50;5.40;;;;;;;14.92;54.90;100760.22;105281;1291;61133;-87
2023/07/05 04:48:47;;;;;;;7.90;4.90;;;;;;;15.11;54.85;100760.09;105244;1290;61159;-86
2023/07/05 04:52:15;;;;;;;7.20;4.80;;;;;;;15.30;54.89;100758.61;105242;1289;73261;-86
2023/07/05 04:55:38;;;;;;;10.80;5.50;;;;;;;15.55;54.92;100756.38;105164;1290;67156;-87
2023/07/05 04:59:24;;;;;;;16.20;8.90;;;;;;;15.81;54.89;100751.11;105216;1292;71394;-87
2023/07/05 05:03:11;;;;;;;23.20;15.40;;;;;;;16.10;54.89;100752.48;105267;1291;62349;-86
2023/07/05 05:06:45;;;;;;;28.90;18.20;;;;;;;16.35;54.83;100751.54;105426;1288;62879;-86
2023/07/05 05:10:12;;;;;;;31.60;20.00;;;;;;;16.53;54.89;100751.38;105554;1288;73623;-86
2023/07/05 05:13:46;;;;;;;26.80;19.30;;;;;;;16.71;55.04;100752.96;105495;1287;67289;-87
2023/07/05 05:17:35;;;;;;;31.50;18.80;;;;;;;16.97;55.22;100752.80;105428;1288;74486;-87
2023/07/05 05:21:27;;;;;;;29.70;17.50;;;;;;;17.58;55.29;100752.51;105417;1287;61820;-86
2023/07/05 05:24:58;;;;;;;22.10;14.40;;;;;;;18.19;54.98;100749.45;105441;1288;61231;-87
2023/07/05 05:28:46;;;;;;;14.10;10.90;;;;;;;18.85;54.97;100750.89;105430;1288;76037;-87
2023/07/05 05:32:16;;;;;;;11.10;7.40;;;;;;;19.53;54.73;100754.88;105409;1287;71212;-86
2023/07/05 05:36:00;;;;;;;12.20;6.60;;;;;;;20.17;54.39;100749.38;105406;1289;72370;-87
2023/07/05 05:39:07;;;;;;;5.70;3.90;;;;;;;20.91;54.16;100755.60;105398;1288;59911;-87
2023/07/05 05:42:22;;;;;;;7.50;3.20;;;;;;;21.41;54.04;100747.82;105252;1293;61177;-87
2023/07/05 05:45:30;;;;;;;5.80;2.90;;;;;;;21.93;53.81;100748.20;105382;1287;73641;-87
2023/07/05 05:49:14;;;;;;;8.30;2.70;;;;;;;22.37;53.38;100743.84;105445;1288;67236;-87
2023/07/05 05:53:00;;;;;;;11.70;2.20;;;;;;;22.74;53.03;100739.56;104875;1294;72036;-87
2023/07/05 05:56:46;;;;;;;5.40;2.80;;;;;;;22.92;52.74;100740.33;104851;1294;61273;-87
2023/07/05 06:00:33;;;;;;;4.20;1.80;;;;;;;23.22;52.82;100741.83;104887;1294;61235;-87
2023/07/05 06:04:19;;;;;;;3.30;2.00;;;;;;;23.84;52.57;100736.40;104879;1292;73455;-88
2023/07/05 06:07:49;;;;;;;5.40;2.10;;;;;;;24.10;51.67;100727.30;104893;1294;67207;-87
2023/07/05 06:11:24;;;;;;;4.40;1.80;;;;;;;24.16;51.75;100722.99;104911;1294;71287;-87
2023/07/05 06:14:15;;;;;;;5.50;2.10;;;;;;;24.63;51.63;100722.65;104900;1294;61321;-87
2023/07/05 06:17:23;;;;;;;4.90;2.10;;;;;;;24.85;51.03;100715.00;104846;1294;59383;-87
2023/07/05 06:20:49;;;;;;;2.60;1.90;;;;;;;25.15;51.05;100714.19;104854;1294;73171;-87
2023/07/05 06:24:35;;;;;;;4.70;1.70;;;;;;;25.44;50.42;100707.86;104893;1294;71300;-87
2023/07/05 06:28:02;;;;;;;3.80;2.20;;;;;;;25.70;49.47;100709.27;104601;1297;71279;-87
2023/07/05 06:31:32;;;;;;;3.80;2.20;;;;;;;26.09;49.73;100706.52;105098;1293;61263;-87
2023/07/05 06:34:47;;;;;;;5.90;3.20;;;;;;;26.76;49.21;100705.48;105053;1291;61218;-87
2023/07/05 06:38:15;;;;;;;10.00;2.20;;;;;;;27.32;48.57;100696.71;105086;1291;75725;-87
2023/07/05 06:41:48;;;;;;;7.00;2.80;;;;;;;27.88;47.88;100689.56;104993;1291;67240;-87
2023/07/05 06:45:17;;;;;;;2.90;1.80;;;;;;;28.38;47.53;100684.43;105039;1291;76025;-87
2023/07/05 06:48:47;;;;;;;4.50;2.10;;;;;;;29.09;47.18;100685.52;105037;1291;61504;-87
2023/07/05 06:52:14;;;;;;;5.20;2.50;;;;;;;29.97;46.22;100689.79;105195;1288;61209;-87
2023/07/05 06:55:41;;;;;;;3.90;2.30;;;;;;;30.65;46.01;100681.85;105327;1290;73878;-87
2023/07/05 06:59:08;;;;;;;5.00;2.40;;;;;;;31.01;45.70;100683.63;105417;1288;67894;-87
2023/07/05 07:02:37;;;;;;;5.20;2.50;;;;;;;31.35;45.08;100680.98;101513;1289;5504994;-89
2023/07/05 07:06:30;;;;;;;3.50;2.30;;;;;;;31.71;44.92;100681.92;105420;1289;61250;-89
2023/07/05 07:10:17;;;;;;;8.20;2.40;;;;;;;32.49;43.79;100689.30;105420;1288;73086;-89
2023/07/05 07:14:03;;;;;;;5.60;2.70;;;;;;;33.01;41.06;100675.46;105431;1288;69094;-89
2023/07/05 07:17:50;;;;;;;5.10;2.70;;;;;;;33.52;41.96;100673.33;105359;1287;71306;-89
2023/07/05 07:21:37;;;;;;;6.30;2.90;;;;;;;34.16;41.02;100664.96;105387;1288;61098;-88
2023/07/05 07:24:43;;;;;;;4.30;3.00;;;;;;;34.99;40.31;100665.11;105363;1288;61275;-88
2023/07/05 07:28:29;;;;;;;6.10;2.90;;;;;;;35.66;39.85;100659.80;105413;1288;73477;-88
2023/07/05 07:32:15;;;;;;;8.70;2.90;;;;;;;35.34;39.67;100654.63;105820;1288;67443;-89
2023/07/05 07:36:02;;;;;;;3.70;3.20;;;;;;;34.78;39.49;100651.29;105459;1288;72660;-89
2023/07/05 07:39:48;;;;;;;5.60;3.60;;;;;;;35.23;38.23;100641.23;105417;1288;59415;-88
2023/07/05 07:43:34;;;;;;;4.10;3.80;;;;;;;34.65;37.67;100639.03;105376;1289;59310;-89
2023/07/05 07:47:21;;;;;;;6.60;3.30;;;;;;;34.19;37.48;100639.21;105421;1288;73281;-88
2023/07/05 07:51:08;;;;;;;7.60;3.60;;;;;;;35.30;36.53;100634.95;105479;1288;67198;-88
2023/07/05 07:57:40;;;;;;;10.80;4.20;;;;;;;37.77;34.44;100623.66;105466;1284;61326;-88
2023/07/05 08:05:07;;;;;;;8.60;5.80;;;;;;;39.58;32.61;100617.95;103888;1305;73404;-87
2023/07/05 08:08:13;;;;;;;6.60;4.90;;;;;;;40.01;32.78;100615.35;103630;1308;68659;-86
2023/07/05 08:11:02;;;;;;;5.50;4.70;;;;;;;40.62;31.99;100610.13;103444;1308;71778;-86
2023/07/05 08:13:48;;;;;;;8.50;5.30;;;;;;;41.67;31.54;100606.39;103435;1308;61818;-86
2023/07/05 08:16:36;;;;;;;7.70;5.40;;;;;;;42.55;30.69;100605.63;103708;1307;59447;-86
2023/07/05 08:19:22;;;;;;;6.30;5.70;;;;;;;43.03;30.50;100603.24;103598;1307;77393;-87
2023/07/05 08:22:09;;;;;;;9.40;5.90;;;;;;;43.55;29.88;100601.63;103681;1307;68546;-86
2023/07/05 08:24:56;;;;;;;11.50;6.30;;;;;;;43.40;29.24;100594.14;103516;1308;74253;-86
2023/07/05 08:27:44;;;;;;;7.40;6.10;;;;;;;42.24;28.74;100590.58;103501;1308;62806;-87
2023/07/05 08:30:30;;;;;;;7.80;6.00;;;;;;;41.04;28.59;100586.80;103504;1308;61215;-85
2023/07/05 08:33:16;;;;;;;9.10;6.10;;;;;;;41.15;28.28;100585.04;103508;1306;73983;-86
2023/07/05 08:36:14;;;;;;;8.50;6.20;;;;;;;42.31;27.62;100580.45;103534;1309;68706;-87
2023/07/05 08:39:03;;;;;;;7.80;7.00;;;;;;;42.66;25.96;100577.87;103682;1306;71733;-86
2023/07/05 08:42:16;;;;;;;8.10;6.50;;;;;;;42.75;26.40;100578.55;104581;1288;61134;-86
2023/07/05 08:45:12;;;;;;;7.30;6.50;;;;;;;43.30;25.91;100572.14;105238;1289;61151;-86
2023/07/05 08:48:03;;;;;;;7.70;7.00;;;;;;;42.79;25.54;100572.65;104948;1287;73201;-85
2023/07/05 08:50:57;;;;;;;10.80;7.30;;;;;;;42.32;25.05;100567.46;104711;1288;73210;-88
2023/07/05 08:54:23;;;;;;;8.90;7.00;;;;;;;41.39;25.16;100564.70;105914;1287;72165;-87
2023/07/05 08:58:09;;;;;;;8.40;7.50;;;;;;;40.37;24.90;100560.66;105051;1288;61301;-89
2023/07/05 09:01:39;;;;;;;10.30;7.20;;;;;;;38.47;24.39;100552.00;104831;1288;61188;-89
2023/07/05 09:05:22;;;;;;;14.40;9.20;;;;;;;36.82;24.80;100545.11;104861;1288;73153;-88
2023/07/05 09:08:52;;;;;;;11.40;9.10;;;;;;;35.52;24.76;100539.98;105048;1288;68580;-87
2023/07/05 09:12:07;;;;;;;11.90;9.80;;;;;;;34.46;24.65;100541.35;104952;1289;73943;-88
2023/07/05 09:15:11;;;;;;;12.00;9.40;;;;;;;33.60;24.88;100536.77;104139;1296;61287;-84
2023/07/05 09:18:10;;;;;;;10.20;9.20;;;;;;;32.84;24.93;100529.84;104257;1296;61303;-84
2023/07/05 09:21:12;;;;;;;12.10;10.20;;;;;;;32.36;25.27;100531.55;104607;1296;76141;-86
2023/07/05 09:24:25;;;;;;;13.60;10.90;;;;;;;32.12;25.34;100524.17;104570;1297;68218;-86
2023/07/05 09:27:18;;;;;;;16.20;10.60;;;;;;;31.68;25.41;100520.41;104537;1297;72595;-86
2023/07/05 09:30:13;;;;;;;17.90;10.60;;;;;;;31.32;25.72;100525.27;104514;1296;59330;-86
2023/07/05 09:33:23;;;;;;;14.20;12.10;;;;;;;31.00;25.87;100515.45;104626;1296;60575;-86
2023/07/05 09:36:23;;;;;;;12.00;10.50;;;;;;;30.53;26.11;100504.48;104597;1299;73322;-86
2023/07/05 09:39:27;;;;;;;13.50;11.00;;;;;;;30.26;26.36;100497.36;104599;1297;73391;-86
2023/07/05 09:42:34;;;;;;;23.20;12.00;;;;;;;30.00;26.73;100493.83;104608;1296;72520;-87
2023/07/05 09:45:20;;;;;;;13.70;11.60;;;;;;;29.76;26.90;100487.27;104459;1297;60106;-86
2023/07/05 09:48:11;;;;;;;14.70;12.50;;;;;;;29.64;27.22;100483.80;104504;1297;61204;-86
2023/07/05 09:51:03;;;;;;;19.10;13.40;;;;;;;29.59;27.42;100477.94;104532;1291;74557;-86
2023/07/05 09:54:00;;;;;;;23.30;13.10;;;;;;;29.50;27.55;100467.34;105435;1288;67166;-86
2023/07/05 09:57:01;;;;;;;15.50;12.60;;;;;;;29.31;27.78;100466.30;105280;1288;72655;-86
2023/07/05 09:59:48;;;;;;;16.70;13.30;;;;;;;29.12;27.84;100463.38;105205;1289;59194;-86
2023/07/05 10:02:34;;;;;;;17.00;13.00;;;;;;;28.99;28.16;100454.88;105268;1294;59419;-86
2023/07/05 10:05:26;;;;;;;19.40;13.70;;;;;;;28.89;28.23;100451.91;105232;1288;73379;-86
2023/07/05 10:08:16;;;;;;;20.60;15.00;;;;;;;28.85;28.50;100449.30;105434;1288;67333;-85
2023/07/05 10:11:03;;;;;;;21.00;14.90;;;;;;;28.86;28.61;100443.86;105265;1288;71246;-85
2023/07/05 10:14:02;;;;;;;16.30;13.80;;;;;;;28.85;28.80;100439.55;104864;1288;61269;-84
2023/07/05 10:16:54;;;;;;;18.70;14.00;;;;;;;28.81;29.05;100430.32;104741;1288;61125;-85
2023/07/05 10:19:52;;;;;;;18.90;14.40;;;;;;;28.73;29.05;100427.85;104708;1288;74410;-84
2023/07/05 10:22:39;;;;;;;23.40;14.20;;;;;;;28.71;29.29;100420.41;104688;1291;67236;-85
2023/07/05 10:25:32;;;;;;;17.90;14.20;;;;;;;28.76;29.35;100414.81;104723;1290;72079;-85
2023/07/05 10:28:28;;;;;;;20.50;14.80;;;;;;;28.78;29.67;100408.61;104684;1290;61262;-83
2023/07/05 10:31:27;;;;;;;15.40;13.60;;;;;;;28.82;29.87;100407.33;104627;1289;61147;-83
2023/07/05 10:34:20;;;;;;;18.10;13.80;;;;;;;28.84;29.84;100406.94;104704;1288;73056;-83
2023/07/05 10:37:27;;;;;;;17.10;13.50;;;;;;;28.80;29.93;100405.42;104674;1290;67973;-83
2023/07/05 10:40:14;;;;;;;17.80;14.70;;;;;;;28.77;30.10;100398.89;104822;1288;71285;-84
2023/07/05 10:43:01;;;;;;;20.10;13.90;;;;;;;28.79;30.29;100395.55;104645;1288;61309;-83
2023/07/05 10:45:48;;;;;;;14.90;13.40;;;;;;;28.90;30.34;100384.38;104681;1288;61745;-84
2023/07/05 10:48:43;;;;;;;19.90;14.70;;;;;;;29.06;30.40;100387.50;104753;1288;76536;-83
2023/07/05 10:51:34;;;;;;;23.60;14.20;;;;;;;29.21;30.70;100381.65;104842;1288;67315;-83
2023/07/05 10:54:32;;;;;;;19.00;14.00;;;;;;;29.38;30.68;100375.60;104682;1288;72434;-84
2023/07/05 10:57:34;;;;;;;18.00;13.70;;;;;;;29.47;30.74;100372.06;105241;1289;61053;-83
2023/07/05 11:00:37;;;;;;;17.20;14.20;;;;;;;29.49;30.77;100365.79;105118;1288;60256;-83
2023/07/05 11:03:44;;;;;;;15.40;13.90;;;;;;;29.51;30.87;100367.54;105034;1288;75249;-83
2023/07/05 11:06:33;;;;;;;15.70;12.00;;;;;;;29.55;30.96;100363.41;104727;1288;70066;-83
2023/07/05 11:09:20;;;;;;;15.70;11.90;;;;;;;29.49;30.77;100362.36;104936;1288;72130;-84
2023/07/05 11:12:20;;;;;;;;;;;;;;;29.39;30.78;100356.71;104698;1288;61242;-83
2023/07/05 11:15:14;;;;;;;11.60;10.00;;;;;;;29.19;30.76;100357.36;104933;1288;61450;-83
2023/07/05 11:18:00;;;;;;;14.40;11.20;;;;;;;29.11;31.08;100349.52;104724;1289;73253;-83
2023/07/05 11:20:53;;;;;;;13.00;11.30;;;;;;;29.13;31.24;100351.19;104448;1288;69097;-83
2023/07/05 11:23:43;;;;;;;14.30;12.00;;;;;;;29.13;31.04;100340.09;105220;1288;72568;-83
2023/07/05 11:26:31;;;;;;;11.90;10.30;;;;;;;29.08;31.33;100344.27;105252;1292;61394;-83
2023/07/05 11:29:32;;;;;;;12.80;11.10;;;;;;;29.09;31.22;100337.45;105260;1289;61728;-84
2023/07/05 11:32:21;;;;;;;11.20;10.00;;;;;;;29.09;31.35;100331.75;105323;1288;75550;-83
2023/07/05 11:35:07;;;;;;;14.20;9.90;;;;;;;29.09;31.25;100325.20;105221;1288;67159;-83
2023/07/05 11:37:53;;;;;;;;;;;;;;;29.20;31.48;100320.98;105060;1288;72710;-83
2023/07/05 11:40:57;;;;;;;11.40;9.10;;;;;;;29.26;31.28;100317.78;105166;1288;61589;-83
2023/07/05 11:43:55;;;;;;;11.40;9.20;;;;;;;29.19;31.27;100310.55;105343;1288;61574;-83
2023/07/05 11:46:50;;;;;;;11.30;10.00;;;;;;;29.15;31.41;100304.48;105297;1288;74506;-83
2023/07/05 11:49:41;;;;;;;17.40;9.90;;;;;;;29.08;31.39;100311.11;105288;1288;68550;-83
2023/07/05 11:52:33;;;;;;;12.20;8.40;;;;;;;29.01;31.52;100307.51;105286;1288;71156;-84
2023/07/05 11:55:31;;;;;;;9.90;9.00;;;;;;;28.99;31.80;100300.83;105248;1288;59160;-84
2023/07/05 11:58:29;;;;;;;9.50;8.50;;;;;;;29.12;31.86;100297.52;105369;1288;61044;-84
2023/07/05 12:01:24;;;;;;;9.00;8.20;;;;;;;29.28;32.04;100294.52;105321;1288;74082;-84
2023/07/05 12:04:16;;;;;;;12.10;7.70;;;;;;;29.34;31.89;100287.73;105294;1289;67408;-84
2023/07/05 12:07:02;;;;;;;8.10;7.20;;;;;;;29.31;31.77;100281.74;105290;1288;71267;-84
2023/07/05 12:09:49;;;;;;;;;;;;;;;29.21;31.72;100275.83;105325;1293;59972;-83
2023/07/05 12:12:39;;;;;;;12.90;8.40;;;;;;;29.12;31.76;100273.89;105058;1288;60085;-83
2023/07/05 12:15:27;;;;;;;10.70;7.50;;;;;;;29.08;31.82;100269.34;104958;1288;75341;-83
2023/07/05 12:18:14;;;;;;;9.80;7.50;;;;;;;29.09;31.90;100260.40;105143;1288;67338;-83
2023/07/05 12:21:06;;;;;;;7.90;7.20;;;;;;;29.05;31.85;100255.50;105061;1288;72331;-84
2023/07/05 12:23:56;;;;;;;10.40;7.00;;;;;;;28.96;31.78;100247.32;104747;1288;61227;-83
2023/07/05 12:26:43;;;;;;;7.40;6.70;;;;;;;28.83;31.76;100240.26;104851;1288;61180;-83
2023/07/05 12:29:29;;;;;;;11.20;7.30;;;;;;;28.69;31.91;100248.03;105264;1288;73873;-84
2023/07/05 12:32:18;;;;;;;8.80;7.30;;;;;;;28.56;32.06;100254.27;105312;1291;70201;-83
2023/07/05 12:35:09;;;;;;;7.90;7.00;;;;;;;28.39;32.09;100261.11;105314;1288;73305;-83
2023/07/05 12:37:58;;;;;;;10.70;6.90;;;;;;;28.25;32.11;100267.71;105317;1288;62312;-83
2023/07/05 12:40:50;;;;;;;8.20;6.70;;;;;;;28.11;32.26;100264.98;105140;1288;61274;-84
2023/07/05 12:43:36;;;;;;;10.20;6.50;;;;;;;27.99;32.26;100256.90;105331;1288;75293;-86
2023/07/05 12:46:25;;;;;;;9.10;6.70;;;;;;;27.97;32.38;100261.02;105143;1288;68475;-86
2023/07/05 12:49:30;;;;;;;7.30;6.50;;;;;;;28.04;32.45;100267.76;105273;1288;71474;-86
2023/07/05 12:52:22;;;;;;;7.30;6.40;;;;;;;28.16;32.44;100283.79;105177;1291;59741;-85
2023/07/05 12:55:26;;;;;;;9.90;7.50;;;;;;;28.28;32.59;100280.89;105208;1288;61095;-85
2023/07/05 12:58:13;;;;;;;9.00;7.90;;;;;;;28.27;32.75;100270.02;105254;1288;73210;-84
2023/07/05 13:01:00;;;;;;;;;;;;;;;28.23;33.03;100261.18;105365;1288;68328;-85
2023/07/05 13:03:48;;;;;;;8.80;7.60;;;;;;;28.21;33.16;100261.00;106133;1288;72005;-86
2023/07/05 13:06:44;;;;;;;8.70;7.60;;;;;;;28.17;33.30;100255.82;106074;1294;59088;-87
2023/07/05 13:09:34;;;;;;;8.80;7.40;;;;;;;28.12;33.54;100252.45;106059;1293;61394;-86
2023/07/05 13:12:20;;;;;;;7.90;7.10;;;;;;;28.02;33.60;100257.31;105448;1290;73080;-85
2023/07/05 13:15:07;;;;;;;11.10;7.80;;;;;;;27.93;33.83;100262.26;105387;1288;68156;-85
2023/07/05 13:17:53;;;;;;;9.70;7.70;;;;;;;27.81;34.01;100268.00;105458;1288;71394;-86
2023/07/05 13:20:42;;;;;;;8.70;7.80;;;;;;;27.64;34.05;100275.80;105304;1293;59747;-85
2023/07/05 13:23:29;;;;;;;8.30;7.10;;;;;;;27.45;34.33;100273.00;105378;1293;60734;-85
2023/07/05 13:26:26;;;;;;;9.40;7.70;;;;;;;27.28;34.49;100271.02;105222;1288;74563;-85
2023/07/05 13:29:35;;;;;;;8.30;7.50;;;;;;;27.09;34.79;100277.48;105351;1288;67640;-86
2023/07/05 13:32:25;;;;;;;9.40;8.40;;;;;;;26.90;35.48;100309.27;105355;1288;72002;-85
2023/07/05 13:35:51;;;;;;;10.60;7.60;;;;;;;26.74;36.13;100321.69;105337;1288;59410;-86
2023/07/05 13:39:08;;;;;;;12.30;9.20;;;;;;;26.41;36.72;100345.23;105261;1292;61244;-86
2023/07/05 13:42:01;;;;;;;17.90;12.80;;;;;;;26.11;37.18;100356.86;105386;1288;74536;-86
2023/07/05 13:44:50;;;;;;;10.40;9.40;;;;;;;25.85;37.47;100370.16;105310;1288;66903;-86
2023/07/05 13:47:37;;;;;;;8.10;7.10;;;;;;;25.50;37.67;100381.02;105428;1288;73505;-85
2023/07/05 13:50:30;;;;;;;7.40;5.50;;;;;;;25.06;38.21;100398.56;105395;1288;59256;-86
2023/07/05 13:53:19;;;;;;;5.50;4.50;;;;;;;24.63;38.45;100406.39;105404;1288;60186;-85
2023/07/05 13:56:06;;;;;;;6.10;4.70;;;;;;;24.31;39.04;100409.45;105388;1288;75142;-85
2023/07/05 13:58:59;;;;;;;6.40;5.00;;;;;;;24.07;39.39;100396.55;105210;1294;68899;-85
2023/07/05 14:01:49;;;;;;;5.10;4.40;;;;;;;23.83;39.08;100365.84;105290;1288;73996;-86
2023/07/05 14:04:35;;;;;;;7.70;4.40;;;;;;;23.57;40.18;100348.06;105353;1288;59397;-85
2023/07/05 14:07:22;;;;;;;5.90;4.50;;;;;;;23.40;40.64;100358.83;105368;1288;59740;-86
2023/07/05 14:10:13;;;;;;;4.20;3.90;;;;;;;23.27;41.11;100371.21;105264;1294;73644;-85
2023/07/05 14:13:05;;;;;;;5.60;4.60;;;;;;;23.21;41.66;100405.45;105441;1288;66966;-86
2023/07/05 14:15:59;;;;;;;4.70;4.30;;;;;;;23.15;41.67;100391.27;105395;1288;73686;-86
2023/07/05 14:18:46;;;;;;;6.20;4.80;;;;;;;22.83;42.14;100374.73;105255;1288;59332;-84
2023/07/05 14:22:08;;;;;;;5.40;4.20;;;;;;;22.61;42.52;100370.00;105357;1288;61154;-85
2023/07/05 14:24:57;;;;;;;8.20;4.60;;;;;;;22.42;42.96;100354.27;105312;1289;73225;-85
2023/07/05 14:27:44;;;;;;;6.60;4.70;;;;;;;22.35;43.35;100344.04;105103;1291;69321;-86
2023/07/05 14:30:31;;;;;;;6.00;4.50;;;;;;;22.16;43.62;100342.73;105256;1294;70271;-85
2023/07/05 14:33:39;;;;;;;8.50;4.90;;;;;;;22.08;44.23;100344.52;105276;1288;62866;-87
2023/07/05 14:36:30;;;;;;;6.10;4.10;;;;;;;22.18;44.49;100347.02;105281;1288;61165;-87
2023/07/05 14:39:20;;;;;;;6.20;4.60;;;;;;;22.23;44.90;100347.73;105148;1288;73112;-85
2023/07/05 14:42:11;;;;;;;9.00;4.60;;;;;;;22.24;44.99;100345.02;105262;1288;68450;-85
2023/07/05 14:44:57;;;;;;;8.50;4.80;;;;;;;22.28;45.05;100339.65;105250;1292;73969;-85
2023/07/05 14:47:50;;;;;;;5.30;4.80;;;;;;;22.35;45.39;100341.95;105208;1289;60747;-84
2023/07/05 14:51:17;;;;;;;5.90;4.90;;;;;;;22.43;45.74;100339.78;105256;1288;61116;-87
2023/07/05 14:54:32;;;;;;;8.40;5.00;;;;;;;22.49;45.96;100337.79;105141;1288;75987;-86
2023/07/05 14:57:58;;;;;;;7.00;5.10;;;;;;;22.54;46.42;100334.13;105265;1288;67402;-87
2023/07/05 15:00:49;;;;;;;5.70;4.90;;;;;;;22.61;46.51;100334.48;105305;1290;72656;-86
2023/07/05 15:04:01;;;;;;;5.30;4.70;;;;;;;22.66;46.79;100338.53;105328;1289;60687;-86
2023/07/05 15:06:58;;;;;;;6.90;5.40;;;;;;;22.66;46.90;100354.67;105266;1288;61142;-86
2023/07/05 15:10:06;;;;;;;6.20;5.20;;;;;;;22.61;46.95;100431.46;105034;1288;73441;-85
2023/07/05 15:13:43;;;;;;;;;;;;;;;;;;;;;
2023/07/05 15:16:41;;;;;;;5.70;5.00;;;;;;;22.32;47.55;100418.02;105301;1288;70295;-86
2023/07/05 15:19:50;;;;;;;7.00;5.40;;;;;;;22.26;47.61;100402.80;105298;1294;59369;-87